Lexington, KY (40583)

12:30 PM EST on January 26, 2015 (GMT -0500)
Garden Meadows | Change Station
CLOSE
Current Station
Personal Weather Station
Location: Lexington, KY
Elevation: 965 ft
Nearby Weather Stations

Elev 965 ft 38.10 °N, 84.53 °W | Updated 8 seconds ago

Overcast
Overcast
27.0 °F
Feels Like 23 °F
N
3.7
Wind Variable Wind from West
Gusts 7.8 mph

Today
High -- | Low -- °F
--% Chance of Precip.
Yesterday
High -- | Low -- °F
Precip. -- in
7:47 AM 5:53 PM
Waxing Crescent, 45% visible
Pressure 29.94 in
Visibility 10.0 miles
Clouds Overcast 1100 ft
Windchill 23 °F
Dew Point 22 °F
Humidity 81%
Rainfall 0.00 in
Snow Depth Not available.
UV 1 out of 12
Pollen .10 out of 12
Air Quality Not available.
Flu Activity Not available.
METAR KLEX 261654Z 29009KT 10SM OVC011 M04/M06 A2991 RMK AO2 SLP137 T10391061

More Conditions Fewer Conditions

Pressure 29.94 in
Visibility 10.0 miles
Clouds Overcast 1100 ft
Windchill 23 °F
Dew Point 22 °F
Humidity 81%
Rainfall 0.00 in
Snow Depth Not available.
UV 1 out of 12
Pollen .10 out of 12
Air Quality Not available.
Flu Activity Not available.
METAR KLEX 261654Z 29009KT 10SM OVC011 M04/M06 A2991 RMK AO2 SLP137 T10391061

More Conditions Fewer Conditions

10-Day Weather Forecast

Almanac

Astronomy

Jan. 26, 2015 Rise Set
Actual Time
Civil Twilight
Nautical Twilight
Astronomical Twilight
Moon
Length of Visible Light
Length of Day
Tomorrow will be .
, % of the Moon is Illuminated

Today's Extremes

State Highs State Lows

Community

WunderPhotos

Upload Photos

1,790,299 photos uploaded!

WunderBlogs® & News

Nearby

Air Quality

  Air Quality AQ Index Pollutant
Not available.

Snow Depth

Station Depth Elevation

Earthquake Activity

City Distance Mag. Time & Date
Minimum magnitude displayed is 2.5.

Coastal Water Temperatures

Place Temperature

Nearby Weather Stations